Airport ID:K65S
Update Time (UTC):13 AUG 20 11:51
Wind Speed (Knots):4
Wind Direction (Magnetic):120
Temperature (°C):9
Dew Point (°C):2
Humidity (%):59
Altimeter (inHg):30.05
Density Altitude (Feet):
Visibility (Miles):10
Clouds (Hundreds of feet):CLR
Present Weather:NO PRECIPITATION
METAR:METAR K65S 131150Z AUTO 00000KT 10SM CLR 09/02 A3005 RMK AO2

The data displayed is for advisory purposes only and is not to be used for flight planning or operations.